Portada
METAR-TAF:

METAR-TAF

Aeroports :

Saipan, Illes Mariannes, Estats Units d'Amèrica

latitud: 15-07N, longitud: 145-44E, altitud: 66 m

Observació

L'informe es va fer fa 37 minuts, a les 11:54 UTC
Vent 11 kt del Est
Temperatura 28°C
Humitat 79%
Pressió 1015 hPa
Visibilitat: 16.1 km
Escasses núvols a una alçada de 2100 ft

METAR: PGSN 251154Z 08011KT 10SM FEW021 28/24 A2997 RMK AO2 SLP170 70002 T02830239 10322 20283 51013

Hora: 22:31 (12:31 UTC)

Pronòstic

L'informe es va fer fa 1 hora i 3 minuts, a les 11:28 UTC
Pronòstic vàlid del 25 a les 12 UTC al 26 a les 12 UTC
Vent 11 kt del Est
Visibilitat: 10 km
Núvols disperses a una alçada de 2000 ft
A partir de les 25 a les 1800 UTC
Vent 15 kt del Est
Visibilitat: 10 km
Núvols disperses a una alçada de 2000 ft
Núvols disperses a una alçada de 5000 ft
xàfecs en les proximitats

TAF: PGSN 251128Z 2512/2612 08011KT P6SM SCT020 FM251800 09015KT P6SM VCSH SCT020 SCT050

Observacions i pronòstics meteorològics de més de 4000 aeroports (METAR i TAF).

Les estacions disponibles són els punts grocs i vermells al mapa.

Posi el ratolí al punt desitjat per veure el nom de l'estació.

Feu clic per veure les observacions i els pronòstics meteorològics.

Per canviar el mapa: feu clic els botons verds amb una creu de color negre per apropar; al botó verd amb un guió per allunyar la imatge; o en les fletxes verdes per a mapes adjacents.


METAR-TAF: